createdAt,value
2018-08-19T00:00:24.832Z,9.83
2018-08-19T00:02:55.669Z,10.30
2018-08-19T00:05:24.003Z,10.03
2018-08-19T00:07:52.410Z,9.57
2018-08-19T00:10:37.596Z,10.00
2018-08-19T00:13:07.199Z,10.30
2018-08-19T00:15:35.801Z,9.97
2018-08-19T00:18:04.417Z,10.37
2018-08-19T00:20:32.755Z,11.23
2018-08-19T00:23:01.131Z,10.90
2018-08-19T00:25:36.153Z,11.17
2018-08-19T00:28:11.022Z,11.77
2018-08-19T00:30:39.490Z,11.23
2018-08-19T00:33:07.912Z,11.37
2018-08-19T00:35:36.313Z,11.60
2018-08-19T00:38:04.673Z,11.03
2018-08-19T00:40:33.100Z,11.87
2018-08-19T00:43:01.433Z,11.33
2018-08-19T00:45:29.788Z,11.60
2018-08-19T00:47:58.136Z,10.17
2018-08-19T00:50:26.520Z,10.60
2018-08-19T00:52:55.362Z,10.70
2018-08-19T00:55:24.160Z,10.80
2018-08-19T00:57:59.516Z,10.20
2018-08-19T01:00:29.033Z,9.60
2018-08-19T01:02:57.348Z,10.57
2018-08-19T01:05:25.679Z,10.23
2018-08-19T01:07:54.069Z,10.60
2018-08-19T01:10:22.481Z,10.40
2018-08-19T01:12:50.833Z,10.50
2018-08-19T01:15:19.232Z,10.03
2018-08-19T01:17:47.507Z,9.87
2018-08-19T01:20:19.619Z,9.87
2018-08-19T01:22:47.955Z,11.23
2018-08-19T01:25:16.656Z,10.00
2018-08-19T01:27:45.064Z,10.27
2018-08-19T01:30:19.856Z,9.63
2018-08-19T01:32:48.434Z,8.80
2018-08-19T01:35:17.015Z,8.57
2018-08-19T01:37:45.368Z,8.00
2018-08-19T01:40:17.520Z,8.53
2018-08-19T01:42:47.096Z,8.53
2018-08-19T01:45:15.415Z,8.10
2018-08-19T01:47:43.791Z,8.17
2018-08-19T01:50:14.403Z,7.53
2018-08-19T01:52:43.396Z,8.67
2018-08-19T01:55:11.747Z,7.63
2018-08-19T01:57:45.387Z,7.53
2018-08-19T02:00:14.592Z,7.37
2018-08-19T02:02:57.636Z,7.60
2018-08-19T02:05:26.427Z,7.00
2018-08-19T02:07:57.755Z,7.37
2018-08-19T02:10:26.868Z,7.20
2018-08-19T02:12:56.262Z,7.30
2018-08-19T02:15:25.871Z,6.80
2018-08-19T02:17:58.150Z,6.10
2018-08-19T02:20:30.527Z,6.97
2018-08-19T02:23:06.448Z,7.70
2018-08-19T02:25:39.754Z,6.60
2018-08-19T02:28:09.130Z,7.37
2018-08-19T02:30:50.510Z,7.60
2018-08-19T02:33:19.492Z,7.73
2018-08-19T02:35:55.364Z,8.60
2018-08-19T02:38:24.674Z,8.37
2018-08-19T02:40:54.713Z,7.77
2018-08-19T02:43:24.147Z,7.37
2018-08-19T02:45:53.051Z,7.47
2018-08-19T02:48:54.706Z,7.60
2018-08-19T02:51:23.106Z,7.03
2018-08-19T02:53:52.391Z,6.73
2018-08-19T02:56:21.472Z,6.50
2018-08-19T02:58:50.433Z,6.77
2018-08-19T03:01:19.586Z,6.80
2018-08-19T03:03:47.910Z,7.00
2018-08-19T03:06:16.219Z,6.07
2018-08-19T03:08:50.084Z,6.57
2018-08-19T03:11:20.538Z,7.07
2018-08-19T03:13:49.669Z,5.87
2018-08-19T03:16:19.536Z,6.20
2018-08-19T03:18:50.917Z,5.93
2018-08-19T03:21:20.617Z,6.63
2018-08-19T03:23:51.676Z,6.83
2018-08-19T03:26:20.240Z,6.70
2018-08-19T03:28:48.657Z,6.83
2018-08-19T03:31:17.443Z,6.33
2018-08-19T03:33:45.808Z,6.70
2018-08-19T03:36:14.165Z,6.37
2018-08-19T03:38:42.536Z,6.83
2018-08-19T03:41:10.893Z,6.70
2018-08-19T03:43:42.830Z,6.10
2018-08-19T03:46:15.347Z,6.43
2018-08-19T03:48:43.682Z,6.57
2018-08-19T03:51:13.159Z,6.57
2018-08-19T03:53:42.158Z,7.33
2018-08-19T03:56:14.749Z,6.73
2018-08-19T03:58:43.125Z,6.60
2018-08-19T04:01:11.519Z,6.53
2018-08-19T04:03:39.866Z,6.43
2018-08-19T04:06:08.270Z,7.30
2018-08-19T04:08:41.873Z,7.93
2018-08-19T04:11:10.204Z,7.37
2018-08-19T04:13:40.515Z,7.67
2018-08-19T04:16:09.814Z,8.27
2018-08-19T04:18:41.364Z,8.30
2018-08-19T04:21:10.987Z,8.20
2018-08-19T04:23:43.756Z,8.63
2018-08-19T04:26:12.082Z,8.77
2018-08-19T04:28:41.636Z,8.70
2018-08-19T04:31:15.425Z,9.43
2018-08-19T04:33:45.265Z,8.43
2018-08-19T04:36:15.292Z,8.23
2018-08-19T04:38:43.712Z,8.47
2018-08-19T04:41:12.474Z,9.10
2018-08-19T04:43:40.780Z,9.10
2018-08-19T04:46:09.141Z,9.20
2018-08-19T04:48:37.459Z,9.27
2018-08-19T04:51:05.876Z,9.07
2018-08-19T04:53:34.731Z,8.40
2018-08-19T04:56:03.105Z,8.53
2018-08-19T04:58:31.446Z,8.53
2018-08-19T05:01:00.056Z,9.50
2018-08-19T05:03:28.368Z,7.77
2018-08-19T05:05:59.878Z,8.93
2018-08-19T05:08:28.415Z,8.90
2018-08-19T05:10:56.554Z,8.60
2018-08-19T05:13:24.851Z,8.40
2018-08-19T05:15:53.170Z,9.07
2018-08-19T05:18:21.514Z,9.23
2018-08-19T05:20:49.884Z,9.63
2018-08-19T05:23:18.224Z,9.63
2018-08-19T05:25:50.917Z,9.50
2018-08-19T05:28:19.459Z,9.80
2018-08-19T05:30:48.050Z,9.83
2018-08-19T05:33:16.334Z,9.33
2018-08-19T05:35:44.747Z,10.17
2018-08-19T05:38:13.137Z,9.97
2018-08-19T05:41:13.323Z,10.53
2018-08-19T05:43:41.625Z,10.47
2018-08-19T05:46:09.974Z,10.30
2018-08-19T05:48:38.356Z,10.93
2018-08-19T05:51:06.698Z,10.70
2018-08-19T05:53:35.004Z,10.40
2018-08-19T05:56:03.332Z,11.13
2018-08-19T05:58:31.632Z,11.00
2018-08-19T06:01:00.992Z,10.10
2018-08-19T06:03:29.737Z,10.23
2018-08-19T06:05:58.465Z,10.33
2018-08-19T06:08:26.819Z,10.30
2018-08-19T06:10:55.162Z,11.37
2018-08-19T06:13:23.544Z,10.67
2018-08-19T06:15:51.962Z,10.33
2018-08-19T06:18:20.243Z,9.97
2018-08-19T06:20:48.628Z,9.80
2018-08-19T06:23:17.047Z,11.70
2018-08-19T06:25:45.407Z,10.33
2018-08-19T06:28:13.724Z,10.50
2018-08-19T06:30:42.088Z,10.20
2018-08-19T06:33:10.478Z,9.87
2018-08-19T06:35:38.790Z,10.33
2018-08-19T06:38:07.088Z,10.37
2018-08-19T06:40:35.431Z,10.90
2018-08-19T06:43:03.827Z,10.23
2018-08-19T06:45:32.111Z,10.47
2018-08-19T06:48:00.474Z,10.77
2018-08-19T06:50:30.537Z,9.87
2018-08-19T06:52:58.898Z,10.03
2018-08-19T06:55:27.278Z,9.90
2018-08-19T06:57:57.485Z,10.20
2018-08-19T07:00:28.709Z,10.17
2018-08-19T07:03:01.312Z,10.07
2018-08-19T07:05:30.028Z,10.63
2018-08-19T07:07:58.336Z,10.67
2018-08-19T07:10:35.393Z,10.20
2018-08-19T07:13:09.076Z,11.03
2018-08-19T07:15:38.715Z,9.97
2018-08-19T07:18:08.593Z,11.10
2018-08-19T07:20:37.141Z,9.73
2018-08-19T07:23:05.957Z,10.33
2018-08-19T07:25:34.376Z,9.93
2018-08-19T07:28:02.689Z,10.63
2018-08-19T07:30:31.079Z,10.60
2018-08-19T07:32:59.488Z,11.53
2018-08-19T07:35:27.824Z,10.40
2018-08-19T07:37:56.128Z,10.53
2018-08-19T07:40:24.462Z,9.47
2018-08-19T07:42:52.816Z,11.23
2018-08-19T07:45:21.180Z,9.93
2018-08-19T07:47:49.502Z,11.00
2018-08-19T07:50:17.878Z,10.87
2018-08-19T07:52:46.282Z,11.17
2018-08-19T07:55:14.703Z,10.80
2018-08-19T07:57:43.291Z,9.77
2018-08-19T08:00:12.367Z,11.23
2018-08-19T08:02:40.753Z,10.17
2018-08-19T08:05:10.053Z,10.10
2018-08-19T08:07:42.745Z,9.60
2018-08-19T08:10:11.084Z,10.83
2018-08-19T08:12:39.412Z,12.03
2018-08-19T08:15:08.118Z,11.10
2018-08-19T08:17:37.694Z,11.50
2018-08-19T08:20:06.457Z,11.03
2018-08-19T08:22:35.010Z,10.57
2018-08-19T08:25:04.175Z,11.00
2018-08-19T08:27:33.115Z,10.70
2018-08-19T08:30:04.857Z,10.67
2018-08-19T08:32:34.325Z,10.23
2018-08-19T08:35:02.802Z,10.43
2018-08-19T08:37:31.132Z,9.80
2018-08-19T08:40:04.918Z,10.20
2018-08-19T08:42:38.092Z,10.43
2018-08-19T08:45:06.763Z,11.10
2018-08-19T08:47:35.193Z,11.73
2018-08-19T08:50:03.510Z,9.77
2018-08-19T08:52:31.952Z,9.23
2018-08-19T08:55:02.563Z,9.60
2018-08-19T08:57:30.932Z,9.20
2018-08-19T08:59:59.265Z,9.63
2018-08-19T09:02:27.676Z,9.27
2018-08-19T09:04:56.236Z,9.53
2018-08-19T09:07:24.852Z,9.47
2018-08-19T09:09:53.273Z,8.93
2018-08-19T09:12:32.895Z,8.60
2018-08-19T09:15:01.228Z,9.20
2018-08-19T09:17:29.627Z,9.10
2018-08-19T09:19:57.965Z,8.73
2018-08-19T09:22:26.276Z,9.00
2018-08-19T09:24:54.668Z,8.07
2018-08-19T09:27:23.025Z,7.63
2018-08-19T09:29:51.401Z,7.53
2018-08-19T09:32:19.891Z,7.13
2018-08-19T09:34:48.308Z,7.53
2018-08-19T09:37:16.648Z,6.80
2018-08-19T09:39:45.015Z,7.00
2018-08-19T09:42:13.788Z,6.40
2018-08-19T09:44:43.168Z,6.73
2018-08-19T09:47:11.567Z,5.43
2018-08-19T09:49:39.895Z,5.87
2018-08-19T09:52:08.282Z,6.13
2018-08-19T09:54:37.718Z,5.87
2018-08-19T09:57:06.953Z,5.40
2018-08-19T09:59:35.354Z,5.67
2018-08-19T10:02:07.872Z,6.07
2018-08-19T10:04:36.233Z,5.87
2018-08-19T10:07:12.032Z,5.93
2018-08-19T10:09:40.426Z,5.53
2018-08-19T10:12:09.549Z,6.37
2018-08-19T10:14:37.921Z,6.13
2018-08-19T10:17:06.740Z,6.13
2018-08-19T10:19:35.528Z,5.23
2018-08-19T10:22:04.097Z,5.13
2018-08-19T10:24:33.535Z,5.27
2018-08-19T10:27:05.602Z,5.20
2018-08-19T10:29:34.005Z,5.43
2018-08-19T10:32:03.251Z,5.23
2018-08-19T10:34:34.694Z,6.10
2018-08-19T10:37:03.485Z,5.47
2018-08-19T10:39:31.939Z,5.50
2018-08-19T10:42:18.767Z,6.03
2018-08-19T10:44:49.073Z,5.90
2018-08-19T10:47:17.823Z,6.07
2018-08-19T10:49:54.396Z,5.97
2018-08-19T10:52:26.129Z,5.53
2018-08-19T10:54:55.413Z,5.53
2018-08-19T10:57:23.753Z,5.97
2018-08-19T10:59:54.667Z,5.40
2018-08-19T11:02:23.412Z,5.67
2018-08-19T11:04:54.245Z,6.00
2018-08-19T11:07:22.588Z,6.27
2018-08-19T11:10:07.028Z,6.03
2018-08-19T11:12:35.379Z,6.50
2018-08-19T11:15:03.837Z,6.63
2018-08-19T11:17:32.232Z,6.90
2018-08-19T11:20:00.611Z,6.70
2018-08-19T11:22:29.015Z,7.10
2018-08-19T11:24:57.429Z,6.67
2018-08-19T11:27:25.776Z,7.00
2018-08-19T11:29:54.124Z,7.37
2018-08-19T11:32:33.815Z,6.80
2018-08-19T11:41:47.800Z,6.70
2018-08-19T11:44:17.405Z,6.60
2018-08-19T11:46:45.815Z,6.77
2018-08-19T11:49:15.475Z,6.83
2018-08-19T11:51:48.017Z,6.47
2018-08-19T11:54:17.514Z,5.83
2018-08-19T11:56:55.355Z,5.60
2018-08-19T11:59:28.130Z,5.73
2018-08-19T12:01:56.736Z,5.40
2018-08-19T12:04:25.064Z,5.97
2018-08-19T12:06:53.403Z,6.17
2018-08-19T12:09:21.724Z,5.17
2018-08-19T12:11:50.133Z,4.93
2018-08-19T12:14:18.476Z,6.43
2018-08-19T12:16:52.287Z,5.20
2018-08-19T12:19:28.444Z,5.10
2018-08-19T12:21:59.012Z,5.65
2018-08-19T12:24:29.584Z,5.23
2018-08-19T12:26:59.638Z,4.67
2018-08-19T12:29:31.201Z,4.70
2018-08-19T12:32:10.656Z,5.40
2018-08-19T12:34:42.900Z,5.50
2018-08-19T12:37:12.458Z,5.90
2018-08-19T12:39:40.807Z,5.97
2018-08-19T12:42:09.280Z,4.73
2018-08-19T12:44:37.808Z,5.27
2018-08-19T12:47:16.044Z,5.00
2018-08-19T12:49:45.882Z,5.43
2018-08-19T12:52:17.649Z,5.47
2018-08-19T12:54:49.629Z,5.10
2018-08-19T12:57:18.120Z,5.03
2018-08-19T12:59:46.494Z,6.07
2018-08-19T13:02:14.860Z,5.67
2018-08-19T13:04:43.208Z,5.67
2018-08-19T13:07:14.022Z,5.93
2018-08-19T13:09:42.359Z,6.17
2018-08-19T13:12:12.291Z,5.33
2018-08-19T13:14:40.803Z,6.13
2018-08-19T13:17:09.163Z,5.47
2018-08-19T13:19:37.630Z,6.30
2018-08-19T13:22:06.187Z,5.63
2018-08-19T13:24:39.840Z,6.00
2018-08-19T13:27:09.355Z,6.40
2018-08-19T13:29:38.314Z,5.93
2018-08-19T13:32:07.149Z,5.77
2018-08-19T13:34:35.426Z,6.17
2018-08-19T13:37:03.995Z,6.73
2018-08-19T13:39:32.454Z,6.27
2018-08-19T13:42:00.807Z,6.20
2018-08-19T13:44:29.177Z,6.80
2018-08-19T13:46:57.627Z,6.90
2018-08-19T13:49:27.337Z,6.13
2018-08-19T13:51:59.001Z,6.97
2018-08-19T13:54:27.381Z,6.60
2018-08-19T13:56:55.936Z,7.17
2018-08-19T13:59:24.268Z,6.97
2018-08-19T14:01:53.874Z,6.80
2018-08-19T14:04:22.243Z,6.93
2018-08-19T14:06:50.739Z,6.30
2018-08-19T14:09:19.476Z,6.43
2018-08-19T14:11:48.072Z,6.63
2018-08-19T14:14:17.193Z,6.80
2018-08-19T14:16:46.475Z,7.23
2018-08-19T14:19:15.028Z,6.90
2018-08-19T14:21:43.993Z,6.80
2018-08-19T14:24:12.540Z,6.60
2018-08-19T14:26:40.953Z,6.87
2018-08-19T14:29:09.275Z,7.13
2018-08-19T14:31:37.587Z,8.13
2018-08-19T14:34:06.712Z,7.30
2018-08-19T14:36:35.022Z,7.40
2018-08-19T14:39:04.986Z,7.60
2018-08-19T14:41:33.370Z,6.40
2018-08-19T14:44:03.120Z,6.87
2018-08-19T14:46:32.518Z,6.57
2018-08-19T14:49:04.904Z,6.77
2018-08-19T14:52:00.602Z,7.30
2018-08-19T14:54:29.473Z,6.40
2018-08-19T14:56:57.974Z,7.37
2018-08-19T14:59:27.644Z,6.20
2018-08-19T15:01:56.202Z,6.93
2018-08-19T15:04:24.535Z,6.80
2018-08-19T15:06:53.167Z,7.30
2018-08-19T15:09:26.990Z,6.40
2018-08-19T15:11:59.826Z,7.37
2018-08-19T15:14:28.097Z,7.47
2018-08-19T15:16:56.892Z,7.97
2018-08-19T15:19:25.473Z,8.77
2018-08-19T15:21:55.071Z,9.27
2018-08-19T15:24:24.012Z,9.23
2018-08-19T15:26:52.569Z,8.97
2018-08-19T15:29:37.463Z,9.77
2018-08-19T15:32:06.382Z,10.27
2018-08-19T15:34:34.881Z,10.30
2018-08-19T15:37:03.256Z,9.67
2018-08-19T15:39:31.577Z,10.67
2018-08-19T15:42:00.171Z,10.03
2018-08-19T15:44:28.615Z,10.90
2018-08-19T15:46:57.601Z,11.33
2018-08-19T15:49:26.253Z,10.40
2018-08-19T15:51:54.605Z,11.57
2018-08-19T15:54:23.257Z,11.93
2018-08-19T15:56:51.609Z,10.87
2018-08-19T15:59:19.964Z,11.30
2018-08-19T16:01:48.572Z,11.97
2018-08-19T16:04:18.027Z,12.73
2018-08-19T16:06:47.970Z,13.10
2018-08-19T16:09:18.273Z,13.10
2018-08-19T16:11:47.643Z,14.10
2018-08-19T16:14:30.309Z,13.23
2018-08-19T16:17:00.503Z,14.93
2018-08-19T16:19:28.841Z,13.53
2018-08-19T16:21:58.303Z,13.70
2018-08-19T16:24:26.969Z,14.03
2018-08-19T16:26:55.353Z,12.80
2018-08-19T16:29:23.751Z,11.90
2018-08-19T16:31:52.242Z,12.90
2018-08-19T16:34:22.841Z,11.83
2018-08-19T16:36:52.416Z,12.43
2018-08-19T16:39:21.885Z,12.73
2018-08-19T16:41:50.148Z,13.77
2018-08-19T16:44:18.818Z,12.83
2018-08-19T16:46:47.245Z,12.77
2018-08-19T16:49:16.723Z,13.13
2018-08-19T16:51:46.588Z,11.83
2018-08-19T16:54:15.301Z,11.97
2018-08-19T16:56:43.666Z,11.33
2018-08-19T16:59:13.419Z,9.67
2018-08-19T17:01:41.785Z,9.40
2018-08-19T17:04:11.752Z,8.60
2018-08-19T17:06:40.126Z,9.00
2018-08-19T17:09:09.286Z,7.43
2018-08-19T17:11:37.657Z,7.73
2018-08-19T17:14:06.074Z,7.50
2018-08-19T17:16:34.449Z,7.60
2018-08-19T17:19:02.879Z,7.73
2018-08-19T17:21:31.473Z,7.30
2018-08-19T17:23:59.796Z,7.73
2018-08-19T17:26:28.500Z,6.50
2018-08-19T17:28:59.520Z,6.97
2018-08-19T17:31:29.218Z,7.07
2018-08-19T17:33:58.024Z,7.43
2018-08-19T17:36:31.374Z,6.63
2018-08-19T17:39:00.246Z,6.40
2018-08-19T17:41:29.155Z,7.10
2018-08-19T17:44:02.296Z,7.33
2018-08-19T17:46:31.233Z,7.30
2018-08-19T17:49:02.606Z,7.07
2018-08-19T17:51:34.849Z,6.80
2018-08-19T17:54:04.125Z,7.60
2018-08-19T17:56:32.606Z,7.40
2018-08-19T17:59:02.806Z,7.07
2018-08-19T18:01:31.221Z,7.43
2018-08-19T18:03:59.901Z,7.40
2018-08-19T18:06:28.614Z,7.27
2018-08-19T18:08:56.965Z,7.07
2018-08-19T18:11:25.322Z,7.73
2018-08-19T18:13:54.929Z,9.47
2018-08-19T18:16:24.401Z,10.93
2018-08-19T18:18:52.914Z,11.33
2018-08-19T18:21:22.181Z,10.83
2018-08-19T18:23:51.080Z,11.87
2018-08-19T18:26:20.752Z,11.40
2018-08-19T18:28:49.728Z,11.17
2018-08-19T18:31:20.536Z,11.53
2018-08-19T18:33:54.199Z,12.30
2018-08-19T18:36:24.180Z,11.77
2018-08-19T18:38:52.912Z,11.03
2018-08-19T18:41:27.423Z,11.10
2018-08-19T18:43:57.020Z,11.80
2018-08-19T18:46:25.520Z,12.00
2018-08-19T18:49:02.571Z,11.30
2018-08-19T18:51:32.740Z,11.00
2018-08-19T18:54:01.254Z,11.23
2018-08-19T18:56:30.368Z,11.03
2018-08-19T18:58:59.167Z,11.60
2018-08-19T19:01:28.216Z,11.50
2018-08-19T19:03:58.264Z,11.63
2018-08-19T19:06:27.564Z,10.03
2018-08-19T19:08:55.995Z,11.00
2018-08-19T19:11:24.775Z,12.73
2018-08-19T19:13:53.222Z,13.47
2018-08-19T19:16:27.642Z,12.73
2018-08-19T19:18:56.486Z,13.80
2018-08-19T19:21:25.215Z,12.90
2018-08-19T19:23:53.822Z,12.57
2018-08-19T19:26:27.429Z,11.23
2018-08-19T19:28:56.775Z,11.87
2018-08-19T19:31:26.808Z,10.73
2018-08-19T19:34:00.861Z,11.23
2018-08-19T19:36:30.778Z,11.00
2018-08-19T19:38:59.405Z,11.80
2018-08-19T19:41:31.134Z,11.57
2018-08-19T19:44:04.281Z,12.23
2018-08-19T19:46:32.813Z,12.07
2018-08-19T19:49:01.472Z,11.03
2018-08-19T19:51:30.212Z,11.67
2018-08-19T19:53:58.890Z,11.93
2018-08-19T19:56:27.508Z,11.30
2018-08-19T19:58:55.949Z,12.27
2018-08-19T20:01:25.049Z,11.33
2018-08-19T20:03:56.006Z,11.50
2018-08-19T20:06:24.809Z,11.30
2018-08-19T20:08:53.625Z,11.30
2018-08-19T20:11:26.996Z,12.33
2018-08-19T20:13:59.298Z,12.20
2018-08-19T20:16:28.349Z,11.37
2018-08-19T20:18:57.211Z,11.90
2018-08-19T20:21:27.423Z,12.43
2018-08-19T20:23:58.053Z,11.73
2018-08-19T20:26:27.409Z,12.63
2018-08-19T20:28:57.035Z,12.33
2018-08-19T20:31:25.627Z,12.37
2018-08-19T20:33:54.796Z,13.23
2018-08-19T20:37:52.485Z,13.37
2018-08-19T20:40:20.844Z,11.30
2018-08-19T20:42:49.237Z,12.60
2018-08-19T20:45:18.178Z,11.67
2018-08-19T20:47:46.781Z,12.23
2018-08-19T20:50:16.150Z,12.60
2018-08-19T20:52:46.787Z,12.13
2018-08-19T20:55:15.621Z,11.70
2018-08-19T20:57:44.535Z,11.50
2018-08-19T21:00:13.005Z,12.23
2018-08-19T21:02:41.405Z,10.60
2018-08-19T21:05:09.808Z,11.33
2018-08-19T21:07:38.121Z,12.83
2018-08-19T21:10:06.698Z,12.30
2018-08-19T21:12:34.992Z,11.87
2018-08-19T21:15:03.345Z,10.97
2018-08-19T21:17:31.808Z,11.23
2018-08-19T21:20:00.252Z,12.37
2018-08-19T21:22:28.618Z,10.90
2018-08-19T21:24:56.997Z,11.00
2018-08-19T21:27:25.314Z,11.07
2018-08-19T21:29:53.690Z,10.60
2018-08-19T21:32:22.051Z,10.83
2018-08-19T21:34:50.406Z,10.80
2018-08-19T21:37:27.000Z,10.43
2018-08-19T21:39:55.351Z,11.17
2018-08-19T21:42:23.878Z,10.53
2018-08-19T21:44:52.233Z,10.47
2018-08-19T21:47:20.583Z,11.47
2018-08-19T21:49:53.206Z,10.40
2018-08-19T21:52:21.560Z,10.67
2018-08-19T21:54:50.019Z,10.60
2018-08-19T21:57:18.332Z,11.00
2018-08-19T21:59:46.652Z,10.40
2018-08-19T22:03:22.007Z,10.50
2018-08-19T22:05:52.515Z,9.90
2018-08-19T22:08:22.068Z,10.70
2018-08-19T22:10:53.339Z,9.80
2018-08-19T22:13:21.703Z,10.10
2018-08-19T22:15:49.994Z,10.50
2018-08-19T22:18:20.383Z,9.90
2018-08-19T22:21:02.944Z,11.33
2018-08-19T22:23:36.836Z,10.40
2018-08-19T22:26:05.292Z,9.67
2018-08-19T22:28:33.952Z,10.37
2018-08-19T22:31:13.451Z,9.57
2018-08-19T22:33:41.845Z,9.33
2018-08-19T22:36:10.197Z,9.70
2018-08-19T22:38:38.531Z,10.50
2018-08-19T22:41:07.088Z,10.37
2018-08-19T22:43:35.473Z,10.47
2018-08-19T22:46:03.818Z,10.40
2018-08-19T22:48:41.314Z,9.23
2018-08-19T22:51:10.804Z,9.90
2018-08-19T22:53:39.133Z,9.70
2018-08-19T22:56:07.492Z,9.10
2018-08-19T22:58:36.247Z,8.37
2018-08-19T23:01:04.635Z,8.27
2018-08-19T23:03:33.025Z,7.73
2018-08-19T23:06:01.402Z,7.83
2018-08-19T23:08:31.837Z,7.73
2018-08-19T23:11:01.233Z,7.27
2018-08-19T23:13:41.071Z,7.17
2018-08-19T23:16:10.604Z,6.90
2018-08-19T23:18:39.694Z,7.13
2018-08-19T23:21:08.498Z,7.63
2018-08-19T23:23:36.814Z,7.37
2018-08-19T23:26:05.558Z,6.37
2018-08-19T23:28:33.976Z,6.87
2018-08-19T23:31:02.353Z,6.43
2018-08-19T23:33:30.711Z,7.63
2018-08-19T23:36:00.883Z,7.63
2018-08-19T23:38:29.297Z,8.37
2018-08-19T23:40:57.688Z,7.63
2018-08-19T23:43:26.013Z,8.97
2018-08-19T23:45:54.358Z,8.00
2018-08-19T23:48:22.701Z,9.10
2018-08-19T23:50:51.067Z,8.27
2018-08-19T23:53:19.409Z,9.00
2018-08-19T23:55:47.736Z,9.87
2018-08-19T23:58:16.069Z,9.47
